sensor_id;sensor_type;location;lat;lon;timestamp;pressure;altitude;pressure_sealevel;temperature
75428;BMP280;64008;55.612;37.698;2023-07-22T00:00:53;99004.88;;;19.67
75428;BMP280;64008;55.612;37.698;2023-07-22T00:03:19;99006.00;;;19.74
75428;BMP280;64008;55.612;37.698;2023-07-22T00:05:44;99009.53;;;19.92
75428;BMP280;64008;55.612;37.698;2023-07-22T00:08:10;99002.00;;;20.03
75428;BMP280;64008;55.612;37.698;2023-07-22T00:10:40;99004.16;;;19.83
75428;BMP280;64008;55.612;37.698;2023-07-22T00:13:06;99007.38;;;19.72
75428;BMP280;64008;55.612;37.698;2023-07-22T00:15:32;99008.75;;;19.92
75428;BMP280;64008;55.612;37.698;2023-07-22T00:17:57;99008.53;;;19.71
75428;BMP280;64008;55.612;37.698;2023-07-22T00:20:23;98997.97;;;19.74
75428;BMP280;64008;55.612;37.698;2023-07-22T00:22:48;99003.91;;;19.62
75428;BMP280;64008;55.612;37.698;2023-07-22T00:25:15;99004.38;;;19.64
75428;BMP280;64008;55.612;37.698;2023-07-22T00:27:41;99005.72;;;19.53
75428;BMP280;64008;55.612;37.698;2023-07-22T00:30:08;99008.59;;;19.48
75428;BMP280;64008;55.612;37.698;2023-07-22T00:32:34;99000.66;;;19.43
75428;BMP280;64008;55.612;37.698;2023-07-22T00:35:02;99004.28;;;19.38
75428;BMP280;64008;55.612;37.698;2023-07-22T00:37:28;99003.53;;;19.47
75428;BMP280;64008;55.612;37.698;2023-07-22T00:39:53;99008.19;;;19.41
75428;BMP280;64008;55.612;37.698;2023-07-22T00:42:20;99008.97;;;19.41
75428;BMP280;64008;55.612;37.698;2023-07-22T00:44:46;99003.03;;;18.99
75428;BMP280;64008;55.612;37.698;2023-07-22T00:47:11;99017.78;;;19.11
75428;BMP280;64008;55.612;37.698;2023-07-22T00:49:37;99013.50;;;18.65
75428;BMP280;64008;55.612;37.698;2023-07-22T00:52:04;99015.00;;;18.79
75428;BMP280;64008;55.612;37.698;2023-07-22T00:54:30;99013.91;;;18.30
75428;BMP280;64008;55.612;37.698;2023-07-22T00:56:57;99019.53;;;18.29
75428;BMP280;64008;55.612;37.698;2023-07-22T00:59:23;99012.78;;;18.59
75428;BMP280;64008;55.612;37.698;2023-07-22T01:01:49;99015.50;;;18.45
75428;BMP280;64008;55.612;37.698;2023-07-22T01:04:15;99019.25;;;18.58
75428;BMP280;64008;55.612;37.698;2023-07-22T01:06:44;99013.22;;;18.39
75428;BMP280;64008;55.612;37.698;2023-07-22T01:09:10;99017.78;;;17.50
75428;BMP280;64008;55.612;37.698;2023-07-22T01:11:36;99031.25;;;17.91
75428;BMP280;64008;55.612;37.698;2023-07-22T01:14:02;99029.13;;;17.88
75428;BMP280;64008;55.612;37.698;2023-07-22T01:16:29;99030.69;;;17.62
75428;BMP280;64008;55.612;37.698;2023-07-22T01:18:55;99027.59;;;17.87
75428;BMP280;64008;55.612;37.698;2023-07-22T01:21:23;99034.13;;;18.09
75428;BMP280;64008;55.612;37.698;2023-07-22T01:23:50;99032.75;;;18.11
75428;BMP280;64008;55.612;37.698;2023-07-22T01:26:16;99031.75;;;18.21
75428;BMP280;64008;55.612;37.698;2023-07-22T01:28:41;99037.31;;;17.97
75428;BMP280;64008;55.612;37.698;2023-07-22T01:31:07;99036.31;;;18.07
75428;BMP280;64008;55.612;37.698;2023-07-22T01:33:32;99038.19;;;17.92
75428;BMP280;64008;55.612;37.698;2023-07-22T01:35:59;99043.34;;;18.03
75428;BMP280;64008;55.612;37.698;2023-07-22T01:38:24;99047.59;;;18.31
75428;BMP280;64008;55.612;37.698;2023-07-22T01:40:49;99045.84;;;17.66
75428;BMP280;64008;55.612;37.698;2023-07-22T01:43:15;99043.69;;;17.36
75428;BMP280;64008;55.612;37.698;2023-07-22T01:45:40;99035.06;;;17.71
75428;BMP280;64008;55.612;37.698;2023-07-22T01:48:08;99051.03;;;17.90
75428;BMP280;64008;55.612;37.698;2023-07-22T01:50:33;99046.88;;;17.51
75428;BMP280;64008;55.612;37.698;2023-07-22T01:52:59;99038.81;;;17.70
75428;BMP280;64008;55.612;37.698;2023-07-22T01:55:24;99048.47;;;17.53
75428;BMP280;64008;55.612;37.698;2023-07-22T01:57:50;99058.94;;;17.68
75428;BMP280;64008;55.612;37.698;2023-07-22T02:00:15;99058.16;;;17.81
75428;BMP280;64008;55.612;37.698;2023-07-22T02:02:42;99058.97;;;17.96
75428;BMP280;64008;55.612;37.698;2023-07-22T02:05:08;99063.41;;;18.42
75428;BMP280;64008;55.612;37.698;2023-07-22T02:07:35;99048.50;;;18.77
75428;BMP280;64008;55.612;37.698;2023-07-22T02:10:00;99051.09;;;18.82
75428;BMP280;64008;55.612;37.698;2023-07-22T02:12:26;99057.47;;;18.72
75428;BMP280;64008;55.612;37.698;2023-07-22T02:14:51;99050.69;;;18.75
75428;BMP280;64008;55.612;37.698;2023-07-22T02:17:17;99050.69;;;18.89
75428;BMP280;64008;55.612;37.698;2023-07-22T02:19:42;99054.00;;;18.94
75428;BMP280;64008;55.612;37.698;2023-07-22T02:22:09;99059.91;;;18.83
75428;BMP280;64008;55.612;37.698;2023-07-22T02:24:34;99059.31;;;18.86
75428;BMP280;64008;55.612;37.698;2023-07-22T02:27:00;99051.00;;;18.73
75428;BMP280;64008;55.612;37.698;2023-07-22T02:29:25;99058.44;;;18.76
75428;BMP280;64008;55.612;37.698;2023-07-22T02:31:51;99061.09;;;18.76
75428;BMP280;64008;55.612;37.698;2023-07-22T02:34:16;99061.25;;;18.94
75428;BMP280;64008;55.612;37.698;2023-07-22T02:36:42;99065.41;;;19.00
75428;BMP280;64008;55.612;37.698;2023-07-22T02:39:07;99059.97;;;18.91
75428;BMP280;64008;55.612;37.698;2023-07-22T02:41:36;99063.34;;;18.97
75428;BMP280;64008;55.612;37.698;2023-07-22T02:44:02;99066.50;;;18.85
75428;BMP280;64008;55.612;37.698;2023-07-22T02:46:28;99076.13;;;19.00
75428;BMP280;64008;55.612;37.698;2023-07-22T02:48:54;99068.53;;;18.79
75428;BMP280;64008;55.612;37.698;2023-07-22T02:51:20;99066.56;;;18.71
75428;BMP280;64008;55.612;37.698;2023-07-22T02:53:46;99068.34;;;18.76
75428;BMP280;64008;55.612;37.698;2023-07-22T02:56:12;99068.34;;;18.76
75428;BMP280;64008;55.612;37.698;2023-07-22T02:58:38;99077.22;;;18.85
75428;BMP280;64008;55.612;37.698;2023-07-22T03:01:04;99072.59;;;19.13
75428;BMP280;64008;55.612;37.698;2023-07-22T03:03:30;99064.53;;;18.91
75428;BMP280;64008;55.612;37.698;2023-07-22T03:05:59;99064.31;;;19.01
75428;BMP280;64008;55.612;37.698;2023-07-22T03:08:24;99068.09;;;19.00
75428;BMP280;64008;55.612;37.698;2023-07-22T03:10:50;99070.81;;;19.09
75428;BMP280;64008;55.612;37.698;2023-07-22T03:13:16;99070.47;;;19.02
75428;BMP280;64008;55.612;37.698;2023-07-22T03:15:42;99068.16;;;19.09
75428;BMP280;64008;55.612;37.698;2023-07-22T03:18:08;99073.16;;;19.24
75428;BMP280;64008;55.612;37.698;2023-07-22T03:20:38;99080.91;;;19.26
75428;BMP280;64008;55.612;37.698;2023-07-22T03:23:05;99068.59;;;19.25
75428;BMP280;64008;55.612;37.698;2023-07-22T03:25:32;99081.50;;;19.22
75428;BMP280;64008;55.612;37.698;2023-07-22T03:27:58;99084.84;;;19.28
75428;BMP280;64008;55.612;37.698;2023-07-22T03:30:24;99078.00;;;19.22
75428;BMP280;64008;55.612;37.698;2023-07-22T03:32:50;99080.91;;;19.26
75428;BMP280;64008;55.612;37.698;2023-07-22T03:35:18;99080.50;;;19.18
75428;BMP280;64008;55.612;37.698;2023-07-22T03:37:44;99089.66;;;19.17
75428;BMP280;64008;55.612;37.698;2023-07-22T03:40:10;99085.88;;;19.18
75428;BMP280;64008;55.612;37.698;2023-07-22T03:42:42;99086.28;;;19.26
75428;BMP280;64008;55.612;37.698;2023-07-22T03:45:08;99087.28;;;19.61
75428;BMP280;64008;55.612;37.698;2023-07-22T03:47:38;99094.47;;;19.29
75428;BMP280;64008;55.612;37.698;2023-07-22T03:50:05;99105.53;;;19.36
75428;BMP280;64008;55.612;37.698;2023-07-22T03:52:31;99106.41;;;19.46
75428;BMP280;64008;55.612;37.698;2023-07-22T03:54:56;99103.38;;;19.02
75428;BMP280;64008;55.612;37.698;2023-07-22T03:57:26;99100.69;;;19.38
75428;BMP280;64008;55.612;37.698;2023-07-22T03:59:55;99104.28;;;19.34
75428;BMP280;64008;55.612;37.698;2023-07-22T04:02:21;99097.94;;;19.30
75428;BMP280;64008;55.612;37.698;2023-07-22T04:04:47;99104.22;;;19.48
75428;BMP280;64008;55.612;37.698;2023-07-22T04:07:12;99096.53;;;19.32
75428;BMP280;64008;55.612;37.698;2023-07-22T04:09:38;99099.44;;;19.44
75428;BMP280;64008;55.612;37.698;2023-07-22T04:12:04;99101.41;;;19.30
75428;BMP280;64008;55.612;37.698;2023-07-22T04:14:30;99099.38;;;19.36
75428;BMP280;64008;55.612;37.698;2023-07-22T04:16:55;99101.81;;;19.46
75428;BMP280;64008;55.612;37.698;2023-07-22T04:19:21;99089.25;;;19.47
75428;BMP280;64008;55.612;37.698;2023-07-22T04:21:46;99090.28;;;19.37
75428;BMP280;64008;55.612;37.698;2023-07-22T04:24:12;99092.75;;;19.33
75428;BMP280;64008;55.612;37.698;2023-07-22T04:26:37;99098.84;;;19.25
75428;BMP280;64008;55.612;37.698;2023-07-22T04:29:03;99096.38;;;19.29
75428;BMP280;64008;55.612;37.698;2023-07-22T04:31:28;99102.13;;;19.44
75428;BMP280;64008;55.612;37.698;2023-07-22T04:33:54;99103.44;;;19.47
75428;BMP280;64008;55.612;37.698;2023-07-22T04:36:19;99109.97;;;19.41
75428;BMP280;64008;55.612;37.698;2023-07-22T04:38:45;99105.72;;;19.40
75428;BMP280;64008;55.612;37.698;2023-07-22T04:41:10;99110.56;;;19.52
75428;BMP280;64008;55.612;37.698;2023-07-22T04:43:36;99119.97;;;19.49
75428;BMP280;64008;55.612;37.698;2023-07-22T04:46:01;99118.25;;;19.53
75428;BMP280;64008;55.612;37.698;2023-07-22T04:48:27;99121.59;;;19.59
75428;BMP280;64008;55.612;37.698;2023-07-22T04:50:52;99132.88;;;19.70
75428;BMP280;64008;55.612;37.698;2023-07-22T04:53:18;99127.16;;;19.62
75428;BMP280;64008;55.612;37.698;2023-07-22T04:55:44;99120.53;;;19.60
75428;BMP280;64008;55.612;37.698;2023-07-22T04:58:09;99121.50;;;19.86
75428;BMP280;64008;55.612;37.698;2023-07-22T05:00:38;99117.50;;;19.75
75428;BMP280;64008;55.612;37.698;2023-07-22T05:03:04;99111.28;;;19.66
75428;BMP280;64008;55.612;37.698;2023-07-22T05:05:31;99119.81;;;19.77
75428;BMP280;64008;55.612;37.698;2023-07-22T05:07:56;99113.94;;;19.89
75428;BMP280;64008;55.612;37.698;2023-07-22T05:10:22;99114.59;;;19.72
75428;BMP280;64008;55.612;37.698;2023-07-22T05:12:48;99113.63;;;19.68
75428;BMP280;64008;55.612;37.698;2023-07-22T05:15:13;99104.50;;;19.69
75428;BMP280;64008;55.612;37.698;2023-07-22T05:17:39;99109.72;;;19.96
75428;BMP280;64008;55.612;37.698;2023-07-22T05:20:05;99109.88;;;20.00
75428;BMP280;64008;55.612;37.698;2023-07-22T05:22:32;99106.81;;;19.84
75428;BMP280;64008;55.612;37.698;2023-07-22T05:24:59;99119.97;;;20.03
75428;BMP280;64008;55.612;37.698;2023-07-22T05:27:24;99118.22;;;19.98
75428;BMP280;64008;55.612;37.698;2023-07-22T05:29:50;99120.34;;;20.10
75428;BMP280;64008;55.612;37.698;2023-07-22T05:32:15;99113.72;;;20.16
75428;BMP280;64008;55.612;37.698;2023-07-22T05:34:41;99108.59;;;20.37
75428;BMP280;64008;55.612;37.698;2023-07-22T05:37:06;99124.28;;;20.61
75428;BMP280;64008;55.612;37.698;2023-07-22T05:39:32;99115.91;;;20.63
75428;BMP280;64008;55.612;37.698;2023-07-22T05:41:57;99119.75;;;20.79
75428;BMP280;64008;55.612;37.698;2023-07-22T05:44:23;99124.47;;;20.73
75428;BMP280;64008;55.612;37.698;2023-07-22T05:46:49;99104.59;;;20.92
75428;BMP280;64008;55.612;37.698;2023-07-22T05:49:14;99109.97;;;20.92
75428;BMP280;64008;55.612;37.698;2023-07-22T05:51:40;99112.47;;;21.14
75428;BMP280;64008;55.612;37.698;2023-07-22T05:54:05;99107.44;;;21.04
75428;BMP280;64008;55.612;37.698;2023-07-22T05:56:31;99110.28;;;21.08
75428;BMP280;64008;55.612;37.698;2023-07-22T05:58:56;99102.84;;;21.05
75428;BMP280;64008;55.612;37.698;2023-07-22T06:01:23;99104.75;;;21.13
75428;BMP280;64008;55.612;37.698;2023-07-22T06:03:50;99100.94;;;21.05
75428;BMP280;64008;55.612;37.698;2023-07-22T06:06:15;99109.94;;;21.09
75428;BMP280;64008;55.612;37.698;2023-07-22T06:08:41;99111.97;;;21.38
75428;BMP280;64008;55.612;37.698;2023-07-22T06:11:06;99111.22;;;21.29
75428;BMP280;64008;55.612;37.698;2023-07-22T06:13:32;99116.25;;;21.31
75428;BMP280;64008;55.612;37.698;2023-07-22T06:15:57;99108.69;;;21.24
75428;BMP280;64008;55.612;37.698;2023-07-22T06:18:22;99098.59;;;21.30
75428;BMP280;64008;55.612;37.698;2023-07-22T06:20:49;99091.13;;;21.35
75428;BMP280;64008;55.612;37.698;2023-07-22T06:23:14;99100.63;;;21.42
75428;BMP280;64008;55.612;37.698;2023-07-22T06:25:40;99098.50;;;21.47
75428;BMP280;64008;55.612;37.698;2023-07-22T06:28:06;99102.34;;;21.37
75428;BMP280;64008;55.612;37.698;2023-07-22T06:30:31;99096.63;;;21.48
75428;BMP280;64008;55.612;37.698;2023-07-22T06:32:57;99110.34;;;21.55
75428;BMP280;64008;55.612;37.698;2023-07-22T06:35:22;99107.34;;;21.74
75428;BMP280;64008;55.612;37.698;2023-07-22T06:37:48;99097.91;;;21.97
75428;BMP280;64008;55.612;37.698;2023-07-22T06:40:13;99099.06;;;21.88
75428;BMP280;64008;55.612;37.698;2023-07-22T06:42:40;99108.88;;;21.83
75428;BMP280;64008;55.612;37.698;2023-07-22T06:45:06;99102.59;;;21.71
75428;BMP280;64008;55.612;37.698;2023-07-22T06:47:32;99100.91;;;21.96
75428;BMP280;64008;55.612;37.698;2023-07-22T06:49:57;99101.56;;;21.93
75428;BMP280;64008;55.612;37.698;2023-07-22T06:52:23;99092.72;;;21.83
75428;BMP280;64008;55.612;37.698;2023-07-22T06:54:49;99098.75;;;21.89
75428;BMP280;64008;55.612;37.698;2023-07-22T06:57:15;99107.28;;;21.82
75428;BMP280;64008;55.612;37.698;2023-07-22T06:59:40;99101.00;;;22.08
75428;BMP280;64008;55.612;37.698;2023-07-22T07:02:06;99090.94;;;21.96
75428;BMP280;64008;55.612;37.698;2023-07-22T07:04:32;99090.94;;;21.96
75428;BMP280;64008;55.612;37.698;2023-07-22T07:06:57;99119.81;;;22.17
75428;BMP280;64008;55.612;37.698;2023-07-22T07:09:24;99104.13;;;21.80
75428;BMP280;64008;55.612;37.698;2023-07-22T07:11:50;99113.63;;;22.16
75428;BMP280;64008;55.612;37.698;2023-07-22T07:14:17;99113.63;;;22.16
75428;BMP280;64008;55.612;37.698;2023-07-22T07:16:43;99087.28;;;22.31
75428;BMP280;64008;55.612;37.698;2023-07-22T07:19:09;99119.91;;;22.29
75428;BMP280;64008;55.612;37.698;2023-07-22T07:21:34;99119.91;;;22.29
75428;BMP280;64008;55.612;37.698;2023-07-22T07:24:00;99108.75;;;22.18
75428;BMP280;64008;55.612;37.698;2023-07-22T07:26:25;99090.91;;;22.05
75428;BMP280;64008;55.612;37.698;2023-07-22T07:28:52;99090.91;;;22.05
75428;BMP280;64008;55.612;37.698;2023-07-22T07:31:17;99101.22;;;22.03
75428;BMP280;64008;55.612;37.698;2023-07-22T07:33:43;99096.50;;;22.21
75428;BMP280;64008;55.612;37.698;2023-07-22T07:36:09;99094.78;;;22.16
75428;BMP280;64008;55.612;37.698;2023-07-22T07:38:35;99117.34;;;22.03
75428;BMP280;64008;55.612;37.698;2023-07-22T07:41:05;99105.03;;;22.02
75428;BMP280;64008;55.612;37.698;2023-07-22T07:43:35;99099.63;;;22.32
75428;BMP280;64008;55.612;37.698;2023-07-22T07:46:23;99099.63;;;22.32
75428;BMP280;64008;55.612;37.698;2023-07-22T07:48:50;99100.41;;;22.32
75428;BMP280;64008;55.612;37.698;2023-07-22T07:51:18;99110.25;;;22.58
75428;BMP280;64008;55.612;37.698;2023-07-22T07:53:45;99110.25;;;22.58
75428;BMP280;64008;55.612;37.698;2023-07-22T07:56:12;99102.78;;;22.55
75428;BMP280;64008;55.612;37.698;2023-07-22T07:58:38;99105.75;;;22.41
75428;BMP280;64008;55.612;37.698;2023-07-22T08:01:04;99107.91;;;22.47
75428;BMP280;64008;55.612;37.698;2023-07-22T08:03:31;99103.09;;;22.32
75428;BMP280;64008;55.612;37.698;2023-07-22T08:05:56;99106.28;;;22.55
75428;BMP280;64008;55.612;37.698;2023-07-22T08:08:22;99109.69;;;22.43
75428;BMP280;64008;55.612;37.698;2023-07-22T08:10:57;99114.06;;;22.57
75428;BMP280;64008;55.612;37.698;2023-07-22T08:13:23;99112.47;;;22.56
75428;BMP280;64008;55.612;37.698;2023-07-22T08:15:48;99125.63;;;22.57
75428;BMP280;64008;55.612;37.698;2023-07-22T08:18:13;99125.63;;;22.57
75428;BMP280;64008;55.612;37.698;2023-07-22T08:20:39;99113.66;;;22.46
75428;BMP280;64008;55.612;37.698;2023-07-22T08:23:04;99116.59;;;22.53
75428;BMP280;64008;55.612;37.698;2023-07-22T08:25:30;99125.22;;;22.67
75428;BMP280;64008;55.612;37.698;2023-07-22T08:27:55;99117.31;;;22.62
75428;BMP280;64008;55.612;37.698;2023-07-22T08:30:21;99105.56;;;22.67
75428;BMP280;64008;55.612;37.698;2023-07-22T08:32:46;99105.56;;;22.67
75428;BMP280;64008;55.612;37.698;2023-07-22T08:35:12;99116.34;;;22.46
75428;BMP280;64008;55.612;37.698;2023-07-22T08:37:37;99107.09;;;22.77
75428;BMP280;64008;55.612;37.698;2023-07-22T08:40:03;99096.41;;;22.89
75428;BMP280;64008;55.612;37.698;2023-07-22T08:42:31;99108.47;;;22.83
75428;BMP280;64008;55.612;37.698;2023-07-22T08:45:00;99108.47;;;22.83
75428;BMP280;64008;55.612;37.698;2023-07-22T08:47:29;99116.59;;;22.95
75428;BMP280;64008;55.612;37.698;2023-07-22T08:49:57;99123.97;;;23.07
75428;BMP280;64008;55.612;37.698;2023-07-22T08:52:23;99123.81;;;23.24
75428;BMP280;64008;55.612;37.698;2023-07-22T08:54:49;99108.00;;;23.02
75428;BMP280;64008;55.612;37.698;2023-07-22T08:57:15;99108.00;;;23.02
75428;BMP280;64008;55.612;37.698;2023-07-22T08:59:41;99103.38;;;23.02
75428;BMP280;64008;55.612;37.698;2023-07-22T09:02:10;99107.84;;;23.19
75428;BMP280;64008;55.612;37.698;2023-07-22T09:04:37;99107.84;;;23.19
75428;BMP280;64008;55.612;37.698;2023-07-22T09:07:02;99097.44;;;23.30
75428;BMP280;64008;55.612;37.698;2023-07-22T09:09:28;99108.78;;;23.35
75428;BMP280;64008;55.612;37.698;2023-07-22T09:11:54;99107.72;;;23.15
75428;BMP280;64008;55.612;37.698;2023-07-22T09:14:21;99107.72;;;23.15
75428;BMP280;64008;55.612;37.698;2023-07-22T09:16:47;99103.38;;;23.35
75428;BMP280;64008;55.612;37.698;2023-07-22T09:19:12;99101.31;;;23.53
75428;BMP280;64008;55.612;37.698;2023-07-22T09:21:38;99118.53;;;23.61
75428;BMP280;64008;55.612;37.698;2023-07-22T09:24:23;99127.25;;;23.46
75428;BMP280;64008;55.612;37.698;2023-07-22T09:26:49;99114.50;;;23.46
75428;BMP280;64008;55.612;37.698;2023-07-22T09:29:15;99110.97;;;23.67
75428;BMP280;64008;55.612;37.698;2023-07-22T09:31:54;99104.59;;;23.71
75428;BMP280;64008;55.612;37.698;2023-07-22T09:34:20;99104.59;;;23.71
75428;BMP280;64008;55.612;37.698;2023-07-22T09:36:55;99106.84;;;23.81
75428;BMP280;64008;55.612;37.698;2023-07-22T09:39:22;99122.38;;;23.72
75428;BMP280;64008;55.612;37.698;2023-07-22T09:41:48;99110.09;;;23.75
75428;BMP280;64008;55.612;37.698;2023-07-22T09:44:14;99119.88;;;23.92
75428;BMP280;64008;55.612;37.698;2023-07-22T09:46:40;99127.88;;;24.13
75428;BMP280;64008;55.612;37.698;2023-07-22T09:49:08;99114.81;;;24.15
75428;BMP280;64008;55.612;37.698;2023-07-22T09:51:38;99110.06;;;24.36
75428;BMP280;64008;55.612;37.698;2023-07-22T09:54:04;99111.06;;;24.31
75428;BMP280;64008;55.612;37.698;2023-07-22T09:56:31;99110.97;;;24.40
75428;BMP280;64008;55.612;37.698;2023-07-22T09:58:59;99121.28;;;24.50
75428;BMP280;64008;55.612;37.698;2023-07-22T10:01:29;99131.41;;;24.53
75428;BMP280;64008;55.612;37.698;2023-07-22T10:03:55;99117.31;;;24.60
75428;BMP280;64008;55.612;37.698;2023-07-22T10:06:27;99134.63;;;24.71
75428;BMP280;64008;55.612;37.698;2023-07-22T10:08:53;99121.88;;;24.84
75428;BMP280;64008;55.612;37.698;2023-07-22T10:11:22;99143.22;;;24.89
75428;BMP280;64008;55.612;37.698;2023-07-22T10:13:48;99122.34;;;25.02
75428;BMP280;64008;55.612;37.698;2023-07-22T10:16:15;99113.34;;;25.26
75428;BMP280;64008;55.612;37.698;2023-07-22T10:18:42;99136.53;;;25.27
75428;BMP280;64008;55.612;37.698;2023-07-22T10:21:08;99149.53;;;25.37
75428;BMP280;64008;55.612;37.698;2023-07-22T10:23:35;99144.25;;;25.41
75428;BMP280;64008;55.612;37.698;2023-07-22T10:26:01;99141.69;;;25.48
75428;BMP280;64008;55.612;37.698;2023-07-22T10:28:29;99141.91;;;25.55
75428;BMP280;64008;55.612;37.698;2023-07-22T10:30:54;99134.16;;;25.54
75428;BMP280;64008;55.612;37.698;2023-07-22T10:33:22;99144.59;;;25.39
75428;BMP280;64008;55.612;37.698;2023-07-22T10:36:07;99136.16;;;25.13
75428;BMP280;64008;55.612;37.698;2023-07-22T10:38:34;99152.63;;;25.08
75428;BMP280;64008;55.612;37.698;2023-07-22T10:41:00;99136.94;;;25.57
75428;BMP280;64008;55.612;37.698;2023-07-22T10:43:33;99136.94;;;25.57
75428;BMP280;64008;55.612;37.698;2023-07-22T10:46:09;99157.69;;;25.69
75428;BMP280;64008;55.612;37.698;2023-07-22T10:48:37;99156.88;;;25.37
75428;BMP280;64008;55.612;37.698;2023-07-22T10:51:10;99146.59;;;25.27
75428;BMP280;64008;55.612;37.698;2023-07-22T10:53:44;99146.13;;;25.09
75428;BMP280;64008;55.612;37.698;2023-07-22T11:04:10;99148.25;;;27.76
75428;BMP280;64008;55.612;37.698;2023-07-22T11:11:55;99164.63;;;28.67
75428;BMP280;64008;55.612;37.698;2023-07-22T11:14:25;99164.50;;;28.56
75428;BMP280;64008;55.612;37.698;2023-07-22T11:16:51;99168.25;;;27.88
75428;BMP280;64008;55.612;37.698;2023-07-22T11:19:19;99148.84;;;27.17
75428;BMP280;64008;55.612;37.698;2023-07-22T11:21:47;99154.78;;;27.45
75428;BMP280;64008;55.612;37.698;2023-07-22T11:24:13;99170.34;;;28.92
75428;BMP280;64008;55.612;37.698;2023-07-22T11:26:39;99170.34;;;28.92
75428;BMP280;64008;55.612;37.698;2023-07-22T11:29:07;99178.53;;;27.52
75428;BMP280;64008;55.612;37.698;2023-07-22T11:31:40;99133.81;;;26.61
75428;BMP280;64008;55.612;37.698;2023-07-22T11:34:14;99162.19;;;26.28
75428;BMP280;64008;55.612;37.698;2023-07-22T11:36:40;99159.09;;;25.63
75428;BMP280;64008;55.612;37.698;2023-07-22T11:41:32;99156.00;;;25.49
75428;BMP280;64008;55.612;37.698;2023-07-22T11:43:58;99156.00;;;25.49
75428;BMP280;64008;55.612;37.698;2023-07-22T11:46:24;99154.81;;;25.62
75428;BMP280;64008;55.612;37.698;2023-07-22T11:48:52;99151.03;;;25.35
75428;BMP280;64008;55.612;37.698;2023-07-22T11:51:22;99157.59;;;25.50
75428;BMP280;64008;55.612;37.698;2023-07-22T11:53:49;99156.19;;;25.40
75428;BMP280;64008;55.612;37.698;2023-07-22T11:56:22;99145.63;;;25.07
75428;BMP280;64008;55.612;37.698;2023-07-22T11:58:52;99148.25;;;25.63
75428;BMP280;64008;55.612;37.698;2023-07-22T12:01:18;99145.03;;;25.73
75428;BMP280;64008;55.612;37.698;2023-07-22T12:03:44;99137.00;;;25.77
75428;BMP280;64008;55.612;37.698;2023-07-22T12:06:10;99146.13;;;26.20
75428;BMP280;64008;55.612;37.698;2023-07-22T12:08:37;99128.91;;;26.47
75428;BMP280;64008;55.612;37.698;2023-07-22T12:11:07;99130.84;;;26.66
75428;BMP280;64008;55.612;37.698;2023-07-22T12:13:37;99128.63;;;26.52
75428;BMP280;64008;55.612;37.698;2023-07-22T12:16:04;99134.53;;;26.38
75428;BMP280;64008;55.612;37.698;2023-07-22T12:18:46;99120.84;;;26.70
75428;BMP280;64008;55.612;37.698;2023-07-22T12:21:12;99121.25;;;26.92
75428;BMP280;64008;55.612;37.698;2023-07-22T12:23:39;99109.81;;;27.02
75428;BMP280;64008;55.612;37.698;2023-07-22T12:26:05;99119.84;;;26.78
75428;BMP280;64008;55.612;37.698;2023-07-22T12:28:31;99128.22;;;27.12
75428;BMP280;64008;55.612;37.698;2023-07-22T12:30:56;99111.72;;;26.40
75428;BMP280;64008;55.612;37.698;2023-07-22T12:33:23;99119.63;;;26.13
75428;BMP280;64008;55.612;37.698;2023-07-22T12:35:49;99121.25;;;26.33
75428;BMP280;64008;55.612;37.698;2023-07-22T12:38:15;99117.91;;;26.59
75428;BMP280;64008;55.612;37.698;2023-07-22T12:40:41;99116.47;;;27.04
75428;BMP280;64008;55.612;37.698;2023-07-22T12:43:06;99114.06;;;27.22
75428;BMP280;64008;55.612;37.698;2023-07-22T12:45:32;99091.00;;;27.59
75428;BMP280;64008;55.612;37.698;2023-07-22T12:47:57;99123.97;;;27.84
75428;BMP280;64008;55.612;37.698;2023-07-22T12:50:23;99102.34;;;27.91
75428;BMP280;64008;55.612;37.698;2023-07-22T12:52:48;99104.16;;;26.88
75428;BMP280;64008;55.612;37.698;2023-07-22T12:55:14;99107.44;;;27.69
75428;BMP280;64008;55.612;37.698;2023-07-22T12:57:39;99101.94;;;27.92
75428;BMP280;64008;55.612;37.698;2023-07-22T13:00:05;99092.91;;;27.85
75428;BMP280;64008;55.612;37.698;2023-07-22T13:02:35;99091.78;;;28.12
75428;BMP280;64008;55.612;37.698;2023-07-22T13:05:00;99095.31;;;27.63
75428;BMP280;64008;55.612;37.698;2023-07-22T13:07:26;99103.19;;;26.99
75428;BMP280;64008;55.612;37.698;2023-07-22T13:09:56;99091.91;;;27.93
75428;BMP280;64008;55.612;37.698;2023-07-22T13:12:24;99103.38;;;28.09
75428;BMP280;64008;55.612;37.698;2023-07-22T13:14:49;99103.38;;;28.09
75428;BMP280;64008;55.612;37.698;2023-07-22T13:17:15;99116.25;;;28.16
75428;BMP280;64008;55.612;37.698;2023-07-22T13:19:40;99108.13;;;28.19
75428;BMP280;64008;55.612;37.698;2023-07-22T13:22:06;99101.56;;;27.14
75428;BMP280;64008;55.612;37.698;2023-07-22T13:24:31;99089.09;;;26.90
75428;BMP280;64008;55.612;37.698;2023-07-22T13:26:57;99093.25;;;26.84
75428;BMP280;64008;55.612;37.698;2023-07-22T13:29:23;99091.22;;;27.23
75428;BMP280;64008;55.612;37.698;2023-07-22T13:31:48;99087.38;;;28.04
75428;BMP280;64008;55.612;37.698;2023-07-22T13:34:13;99087.38;;;28.04
75428;BMP280;64008;55.612;37.698;2023-07-22T13:36:40;99078.47;;;28.07
75428;BMP280;64008;55.612;37.698;2023-07-22T13:39:06;99075.78;;;28.41
75428;BMP280;64008;55.612;37.698;2023-07-22T13:41:31;99075.78;;;28.41
75428;BMP280;64008;55.612;37.698;2023-07-22T13:43:56;99077.88;;;28.55
75428;BMP280;64008;55.612;37.698;2023-07-22T13:46:22;99081.22;;;28.41
75428;BMP280;64008;55.612;37.698;2023-07-22T13:48:48;99078.59;;;28.48
75428;BMP280;64008;55.612;37.698;2023-07-22T13:51:13;99077.53;;;28.56
75428;BMP280;64008;55.612;37.698;2023-07-22T13:53:39;99073.19;;;28.52
75428;BMP280;64008;55.612;37.698;2023-07-22T13:56:04;99097.44;;;29.08
75428;BMP280;64008;55.612;37.698;2023-07-22T13:58:30;99106.38;;;28.68
75428;BMP280;64008;55.612;37.698;2023-07-22T14:00:55;99090.81;;;28.65
75428;BMP280;64008;55.612;37.698;2023-07-22T14:03:21;99084.81;;;28.48
75428;BMP280;64008;55.612;37.698;2023-07-22T14:05:46;99093.75;;;28.86
75428;BMP280;64008;55.612;37.698;2023-07-22T14:08:12;99090.69;;;28.54